地図

経路データ

SID SEASON NUMBER BASIN SUBBASIN NAME ISO_TIME NATURE LAT LON WMO_WIND WMO_PRES WMO_AGENCY TRACK_TYPE DIST2LAND LANDFALL IFLAG USA_AGENCY USA_ATCF_ID USA_LAT USA_LON USA_RECORD USA_STATUS USA_WIND USA_PRES USA_SSHS USA_R34_NE USA_R34_SE USA_R34_SW USA_R34_NW USA_R50_NE USA_R50_SE USA_R50_SW USA_R50_NW USA_R64_NE USA_R64_SE USA_R64_SW USA_R64_NW USA_POCI USA_ROCI USA_RMW USA_EYE TOKYO_LAT TOKYO_LON TOKYO_GRADE TOKYO_WIND TOKYO_PRES TOKYO_R50_DIR TOKYO_R50_LONG TOKYO_R50_SHORT TOKYO_R30_DIR TOKYO_R30_LONG TOKYO_R30_SHORT TOKYO_LAND CMA_LAT CMA_LON CMA_CAT CMA_WIND CMA_PRES HKO_LAT HKO_LON HKO_CAT HKO_WIND HKO_PRES NEWDELHI_LAT NEWDELHI_LON NEWDELHI_GRADE NEWDELHI_WIND NEWDELHI_PRES NEWDELHI_CI NEWDELHI_DP NEWDELHI_POCI REUNION_LAT REUNION_LON REUNION_TYPE REUNION_WIND REUNION_PRES REUNION_TNUM REUNION_CI REUNION_RMW REUNION_R34_NE REUNION_R34_SE REUNION_R34_SW REUNION_R34_NW REUNION_R50_NE REUNION_R50_SE REUNION_R50_SW REUNION_R50_NW REUNION_R64_NE REUNION_R64_SE REUNION_R64_SW REUNION_R64_NW BOM_LAT BOM_LON BOM_TYPE BOM_WIND BOM_PRES BOM_TNUM BOM_CI BOM_RMW BOM_R34_NE BOM_R34_SE BOM_R34_SW BOM_R34_NW BOM_R50_NE BOM_R50_SE BOM_R50_SW BOM_R50_NW BOM_R64_NE BOM_R64_SE BOM_R64_SW BOM_R64_NW BOM_ROCI BOM_POCI BOM_EYE BOM_POS_METHOD BOM_PRES_METHOD NADI_LAT NADI_LON NADI_CAT NADI_WIND NADI_PRES WELLINGTON_LAT WELLINGTON_LON WELLINGTON_WIND WELLINGTON_PRES DS824_LAT DS824_LON DS824_STAGE DS824_WIND DS824_PRES TD9636_LAT TD9636_LON TD9636_STAGE TD9636_WIND TD9636_PRES TD9635_LAT TD9635_LON TD9635_WIND TD9635_PRES TD9635_ROCI NEUMANN_LAT NEUMANN_LON NEUMANN_CLASS NEUMANN_WIND NEUMANN_PRES MLC_LAT MLC_LON MLC_CLASS MLC_WIND MLC_PRES USA_GUST BOM_GUST BOM_GUST_PER REUNION_GUST REUNION_GUST_PER USA_SEAHGT USA_SEARAD_NE USA_SEARAD_SE USA_SEARAD_SW USA_SEARAD_NW STORM_SPEED STORM_DIR
1903202N20292 1903 31 NA NA NOT_NAMED 1903-07-21 00:00:00 TS 20.0000 -67.8000 35 hurdat_atl main 158 152 O_____________ hurdat_atl AL011903 20.0000 -67.8000 TS 35 0 12 304
1903202N20292 1903 31 NA NA NOT_NAMED 1903-07-21 03:00:00 TS 20.3454 -68.3520 main 146 146 P_____________ AL011903 20.3454 -68.3520 TS 35 0 12 304
1903202N20292 1903 31 NA NA NOT_NAMED 1903-07-21 06:00:00 TS 20.7000 -68.9000 35 hurdat_atl main 162 159 O_____________ hurdat_atl AL011903 20.7000 -68.9000 TS 35 0 13 306
1903202N20292 1903 31 NA NA NOT_NAMED 1903-07-21 09:00:00 TS 21.0773 -69.4430 main 179 175 P_____________ AL011903 21.0773 -69.4430 TS 35 0 13 308
1903202N20292 1903 31 NA NA NOT_NAMED 1903-07-21 12:00:00 TS 21.5000 -70.0000 35 hurdat_atl main 200 197 O_____________ hurdat_atl AL011903 21.5000 -70.0000 TS 35 0 14 310
1903202N20292 1903 31 NA NA NOT_NAMED 1903-07-21 15:00:00 TS 21.9697 -70.5781 main 246 235 P_____________ AL011903 21.9697 -70.5781 TS 35 0 15 312
1903202N20292 1903 31 NA NA NOT_NAMED 1903-07-21 18:00:00 TS 22.5000 -71.2000 35 hurdat_atl main 235 227 O_____________ hurdat_atl AL011903 22.5000 -71.2000 TS 35 0 17 312
1903202N20292 1903 31 NA NA NOT_NAMED 1903-07-21 21:00:00 TS 23.0851 -71.9000 main 240 240 P_____________ AL011903 23.0851 -71.9000 TS 35 0 18 313
1903202N20292 1903 31 NA NA NOT_NAMED 1903-07-22 00:00:00 TS 23.7000 -72.6000 35 hurdat_atl main 282 282 O_____________ hurdat_atl AL011903 23.7000 -72.6000 TS 35 0 17 315
1903202N20292 1903 31 NA NA NOT_NAMED 1903-07-22 03:00:00 TS 24.2696 -73.2162 main 346 346 P_____________ AL011903 24.2696 -73.2162 TS 35 0 16 318
1903202N20292 1903 31 NA NA NOT_NAMED 1903-07-22 06:00:00 TS 24.9000 -73.8000 35 hurdat_atl main 396 354 O_____________ hurdat_atl AL011903 24.9000 -73.8000 TS 35 0 18 322
1903202N20292 1903 31 NA NA NOT_NAMED 1903-07-22 09:00:00 TS 25.7078 -74.4514 main 348 338 P_____________ AL011903 25.7078 -74.4514 TS 37 0 19 326
1903202N20292 1903 31 NA NA NOT_NAMED 1903-07-22 12:00:00 TS 26.5000 -75.0000 40 hurdat_atl main 338 332 O_____________ hurdat_atl AL011903 26.5000 -75.0000 TS 40 0 16 330
1903202N20292 1903 31 NA NA NOT_NAMED 1903-07-22 15:00:00 TS 27.0796 -75.3335 main 349 342 P_____________ AL011903 27.0796 -75.3335 TS 40 0 12 338
1903202N20292 1903 31 NA NA NOT_NAMED 1903-07-22 18:00:00 TS 27.6000 -75.5000 40 hurdat_atl main 374 374 O_____________ hurdat_atl AL011903 27.6000 -75.5000 TS 40 0 12 348
1903202N20292 1903 31 NA NA NOT_NAMED 1903-07-22 21:00:00 TS 28.1999 -75.6026 main 420 420 P_____________ AL011903 28.1999 -75.6026 TS 42 0 12 356
1903202N20292 1903 31 NA NA NOT_NAMED 1903-07-23 00:00:00 TS 28.8000 -75.6000 45 hurdat_atl main 476 476 O_____________ hurdat_atl AL011903 28.8000 -75.6000 TS 45 0 12 3
1903202N20292 1903 31 NA NA NOT_NAMED 1903-07-23 03:00:00 TS 29.3575 -75.5375 main 496 496 P_____________ AL011903 29.3575 -75.5375 TS 47 0 11 9
1903202N20292 1903 31 NA NA NOT_NAMED 1903-07-23 06:00:00 TS 29.9000 -75.4000 50 hurdat_atl main 508 465 O_____________ hurdat_atl AL011903 29.9000 -75.4000 TS 50 0 11 11
1903202N20292 1903 31 NA NA NOT_NAMED 1903-07-23 09:00:00 TS 30.4419 -75.2886 main 465 428 P_____________ AL011903 30.4419 -75.2886 TS 52 0 12 17
1903202N20292 1903 31 NA NA NOT_NAMED 1903-07-23 12:00:00 TS 31.0000 -75.0000 55 hurdat_atl main 428 392 O_____________ hurdat_atl AL011903 31.0000 -75.0000 TS 55 0 14 33
1903202N20292 1903 31 NA NA NOT_NAMED 1903-07-23 15:00:00 TS 31.5922 -74.4196 main 396 380 P_____________ AL011903 31.5922 -74.4196 TS 57 0 17 45
1903202N20292 1903 31 NA NA NOT_NAMED 1903-07-23 18:00:00 TS 32.2000 -73.6000 60 hurdat_atl main 387 385 O_____________ hurdat_atl AL011903 32.2000 -73.6000 TS 60 0 20 51
1903202N20292 1903 31 NA NA NOT_NAMED 1903-07-23 21:00:00 TS 32.8235 -72.6085 main 413 407 P_____________ AL011903 32.8235 -72.6085 TS 62 0 21 54
1903202N20292 1903 31 NA NA NOT_NAMED 1903-07-24 00:00:00 TS 33.4000 -71.6000 65 hurdat_atl main 445 445 O_____________ hurdat_atl AL011903 33.4000 -71.6000 HU 65 1 18 55
1903202N20292 1903 31 NA NA NOT_NAMED 1903-07-24 03:00:00 TS 33.8636 -70.8176 main 477 477 P_____________ AL011903 33.8636 -70.8176 HU 67 1 15 54
1903202N20292 1903 31 NA NA NOT_NAMED 1903-07-24 06:00:00 TS 34.3000 -70.1000 70 hurdat_atl main 518 518 O_____________ hurdat_atl AL011903 34.3000 -70.1000 HU 70 1 16 54
1903202N20292 1903 31 NA NA NOT_NAMED 1903-07-24 09:00:00 TS 34.7846 -69.3066 main 572 572 P_____________ AL011903 34.7846 -69.3066 HU 70 1 17 53
1903202N20292 1903 31 NA NA NOT_NAMED 1903-07-24 12:00:00 TS 35.3000 -68.5000 70 hurdat_atl main 634 634 O_____________ hurdat_atl AL011903 35.3000 -68.5000 HU 70 1 17 51
1903202N20292 1903 31 NA NA NOT_NAMED 1903-07-24 15:00:00 TS 35.8568 -67.7069 main 675 647 P_____________ AL011903 35.8568 -67.7069 HU 70 1 17 50
1903202N20292 1903 31 NA NA NOT_NAMED 1903-07-24 18:00:00 TS 36.4000 -66.9000 70 hurdat_atl main 647 630 O_____________ hurdat_atl AL011903 36.4000 -66.9000 HU 70 1 17 52
1903202N20292 1903 31 NA NA NOT_NAMED 1903-07-24 21:00:00 TS 36.8872 -66.0495 main 634 630 P_____________ AL011903 36.8872 -66.0495 HU 70 1 16 56
1903202N20292 1903 31 NA NA NOT_NAMED 1903-07-25 00:00:00 TS 37.3000 -65.2000 70 hurdat_atl main 638 635 O_____________ hurdat_atl AL011903 37.3000 -65.2000 HU 70 1 15 60
1903202N20292 1903 31 NA NA NOT_NAMED 1903-07-25 03:00:00 TS 37.6210 -64.4280 main 660 637 P_____________ AL011903 37.6210 -64.4280 HU 67 1 14 65
1903202N20292 1903 31 NA NA NOT_NAMED 1903-07-25 06:00:00 TS 37.9000 -63.6000 65 hurdat_atl main 639 628 O_____________ hurdat_atl AL011903 37.9000 -63.6000 HU 65 1 15 68
1903202N20292 1903 31 NA NA NOT_NAMED 1903-07-25 09:00:00 TS 38.1816 -62.6895 main 628 627 P_____________ AL011903 38.1816 -62.6895 HU 62 0 18 70
1903202N20292 1903 31 NA NA NOT_NAMED 1903-07-25 12:00:00 TS 38.5000 -61.5000 60 hurdat_atl main 640 639 O_____________ hurdat_atl AL011903 38.5000 -61.5000 TS 60 0 23 72
1903202N20292 1903 31 NA NA NOT_NAMED 1903-07-25 15:00:00 TS 38.9021 -59.8417 main 685 685 P_____________ AL011903 38.9021 -59.8417 TS 57 0 28 74
1903202N20292 1903 31 NA NA NOT_NAMED 1903-07-25 18:00:00 TS 39.3000 -58.0000 55 hurdat_atl main 703 702 O_____________ hurdat_atl AL011903 39.3000 -58.0000 TS 55 0 28 75
1903202N20292 1903 31 NA NA NOT_NAMED 1903-07-25 21:00:00 TS 39.6120 -56.3324 main 735 735 P_____________ AL011903 39.6120 -56.3324 TS 52 0 26 77
1903202N20292 1903 31 NA NA NOT_NAMED 1903-07-26 00:00:00 TS 39.9000 -54.7000 50 hurdat_atl main 750 711 O_____________ hurdat_atl AL011903 39.9000 -54.7000 TS 50 0 26 77
1903202N20292 1903 31 NA NA NOT_NAMED 1903-07-26 03:00:00 TS 40.2064 -53.0196 main 711 688 P_____________ AL011903 40.2064 -53.0196 TS 50 0 26 77
1903202N20292 1903 31 NA NA NOT_NAMED 1903-07-26 06:00:00 ET 40.5000 -51.4000 50 hurdat_atl main 693 687 O_____________ hurdat_atl AL011903 40.5000 -51.4000 EX 50 -4 24 77
1903202N20292 1903 31 NA NA NOT_NAMED 1903-07-26 09:00:00 ET 40.7622 -49.9112 main 696 696 P_____________ AL011903 40.7622 -49.9112 EX 47 -4 22 77
1903202N20292 1903 31 NA NA NOT_NAMED 1903-07-26 12:00:00 ET 41.0000 -48.5000 45 hurdat_atl main 726 726 O_____________ hurdat_atl AL011903 41.0000 -48.5000 EX 45 -4 22 78
1903202N20292 1903 31 NA NA NOT_NAMED 1903-07-26 15:00:00 ET 41.2113 -47.1017 main 772 772 P_____________ AL011903 41.2113 -47.1017 EX 42 -4 21 79
1903202N20292 1903 31 NA NA NOT_NAMED 1903-07-26 18:00:00 ET 41.4000 -45.7000 40 hurdat_atl main 830 O_____________ hurdat_atl AL011903 41.4000 -45.7000 EX 40 -4 21 80

IBTrACS Databaseについて

本データベースは、米国NOAAが公開する1842年以降の世界の熱帯低気圧のベストトラックデータアーカイブInternational Best Track Archive for Climate Stewardship (IBTrACS)を、ウェブで閲覧しやすい形式に変換したものです。

最終更新日:2021-12-01